createdAt,value
2019-04-27T00:01:48.477Z,106.67
2019-04-27T00:04:25.320Z,104.47
2019-04-27T00:06:56.068Z,112.28
2019-04-27T00:09:43.101Z,110.83
2019-04-27T00:12:16.411Z,111.25
2019-04-27T00:14:44.099Z,108.70
2019-04-27T00:17:40.439Z,113.00
2019-04-27T00:19:55.779Z,106.25
2019-04-27T00:22:33.576Z,105.35
2019-04-27T00:25:03.503Z,108.25
2019-04-27T00:27:33.537Z,106.00
2019-04-27T00:30:05.855Z,111.25
2019-04-27T00:32:34.282Z,110.68
2019-04-27T00:35:03.748Z,106.92
2019-04-27T00:37:36.637Z,102.22
2019-04-27T00:40:14.771Z,106.20
2019-04-27T00:42:45.724Z,107.12
2019-04-27T00:45:16.765Z,113.32
2019-04-27T00:47:56.590Z,105.78
2019-04-27T00:50:16.668Z,97.62
2019-04-27T00:52:45.631Z,110.28
2019-04-27T00:55:14.045Z,101.00
2019-04-27T00:58:00.398Z,112.68
2019-04-27T01:00:33.747Z,114.50
2019-04-27T01:03:03.968Z,109.55
2019-04-27T01:05:33.766Z,115.45
2019-04-27T01:08:03.820Z,119.10
2019-04-27T01:10:33.450Z,117.93
2019-04-27T01:13:05.821Z,115.28
2019-04-27T01:15:34.394Z,112.95
2019-04-27T01:18:11.979Z,115.90
2019-04-27T01:20:32.989Z,121.17
2019-04-27T01:23:01.619Z,120.33
2019-04-27T01:25:31.681Z,127.10
2019-04-27T01:28:18.614Z,126.50
2019-04-27T01:30:49.041Z,119.60
2019-04-27T01:33:17.491Z,117.45
2019-04-27T01:35:45.973Z,124.35
2019-04-27T01:38:14.401Z,125.30
2019-04-27T01:40:42.811Z,124.47
2019-04-27T01:43:11.258Z,129.30
2019-04-27T01:45:43.623Z,123.13
2019-04-27T01:48:23.623Z,115.32
2019-04-27T01:50:47.097Z,116.65
2019-04-27T01:53:15.638Z,112.95
2019-04-27T01:55:44.050Z,113.88
2019-04-27T01:58:12.586Z,118.13
2019-04-27T02:01:01.262Z,127.25
2019-04-27T02:03:33.279Z,117.95
2019-04-27T02:06:02.083Z,120.92
2019-04-27T02:08:30.565Z,124.62
2019-04-27T02:10:59.489Z,130.37
2019-04-27T02:13:29.036Z,122.00
2019-04-27T02:15:58.846Z,116.08
2019-04-27T02:18:35.611Z,121.62
2019-04-27T02:20:59.156Z,124.25
2019-04-27T02:23:29.304Z,123.33
2019-04-27T02:25:58.598Z,123.97
2019-04-27T02:28:29.494Z,123.20
2019-04-27T02:31:19.555Z,125.95
2019-04-27T02:33:52.766Z,124.47
2019-04-27T02:36:21.173Z,130.47
2019-04-27T02:38:50.165Z,117.62
2019-04-27T02:41:19.919Z,132.17
2019-04-27T02:43:50.177Z,125.90
2019-04-27T02:46:20.174Z,121.27
2019-04-27T02:48:59.658Z,127.62
2019-04-27T02:51:42.464Z,120.53
2019-04-27T02:54:12.052Z,124.38
2019-04-27T02:56:40.557Z,119.75
2019-04-27T02:59:11.879Z,130.82
2019-04-27T03:01:50.300Z,128.15
2019-04-27T03:04:20.492Z,119.65
2019-04-27T03:06:50.080Z,117.93
2019-04-27T03:09:20.510Z,126.12
2019-04-27T03:11:49.961Z,110.67
2019-04-27T03:14:34.932Z,118.25
2019-04-27T03:17:00.169Z,109.70
2019-04-27T03:19:30.047Z,113.60
2019-04-27T03:22:00.340Z,116.70
2019-04-27T03:24:46.582Z,115.52
2019-04-27T03:27:16.644Z,107.87
2019-04-27T03:29:45.302Z,113.83
2019-04-27T03:32:13.907Z,111.47
2019-04-27T03:34:42.344Z,105.22
2019-04-27T03:37:10.955Z,114.13
2019-04-27T03:39:39.860Z,109.48
2019-04-27T03:42:10.467Z,122.17
2019-04-27T03:44:39.767Z,110.55
2019-04-27T03:47:10.023Z,110.97
2019-04-27T03:49:41.587Z,119.67
2019-04-27T03:52:14.445Z,114.00
2019-04-27T03:55:00.653Z,130.35
2019-04-27T03:57:33.268Z,121.35
2019-04-27T04:00:03.385Z,123.28
2019-04-27T04:02:31.806Z,113.55
2019-04-27T04:05:04.102Z,117.08
2019-04-27T04:07:32.515Z,104.50
2019-04-27T04:10:00.930Z,115.45
2019-04-27T04:12:36.072Z,113.92
2019-04-27T04:15:10.007Z,112.47
2019-04-27T04:17:40.250Z,109.67
2019-04-27T04:20:10.206Z,109.60
2019-04-27T04:22:40.357Z,113.88
2019-04-27T04:25:10.703Z,123.53
2019-04-27T04:27:42.813Z,118.22
2019-04-27T04:30:12.432Z,128.97
2019-04-27T04:32:41.123Z,129.15
2019-04-27T04:35:21.603Z,128.85
2019-04-27T04:37:52.774Z,131.35
2019-04-27T04:40:25.250Z,144.13
2019-04-27T04:42:55.380Z,140.50
2019-04-27T04:45:25.532Z,137.43
2019-04-27T04:47:55.660Z,146.68
2019-04-27T04:50:30.248Z,145.10
2019-04-27T04:53:00.143Z,148.95
2019-04-27T04:55:30.476Z,143.07
2019-04-27T04:57:59.105Z,154.85
2019-04-27T05:00:29.861Z,145.62
2019-04-27T05:02:59.693Z,152.55
2019-04-27T05:05:29.315Z,167.32
2019-04-27T05:08:00.769Z,150.85
2019-04-27T05:10:28.795Z,135.32
2019-04-27T05:12:59.077Z,155.65
2019-04-27T05:15:29.317Z,143.80
2019-04-27T05:17:59.192Z,147.80
2019-04-27T05:20:32.722Z,147.10
2019-04-27T05:23:01.132Z,158.10
2019-04-27T05:25:30.502Z,151.12
2019-04-27T05:27:59.675Z,182.75
2019-04-27T05:30:28.708Z,155.18
2019-04-27T05:32:58.581Z,166.53
2019-04-27T05:35:27.114Z,155.25
2019-04-27T05:37:55.542Z,187.88
2019-04-27T05:40:24.019Z,128.55
2019-04-27T05:42:56.244Z,139.25
2019-04-27T05:45:57.770Z,127.47
2019-04-27T05:48:30.756Z,137.90
2019-04-27T05:51:04.977Z,134.30
2019-04-27T05:53:34.459Z,123.22
2019-04-27T05:56:05.982Z,124.92
2019-04-27T05:58:34.562Z,124.22
2019-04-27T06:01:02.968Z,131.35
2019-04-27T06:03:31.457Z,131.72
2019-04-27T06:06:15.682Z,126.42
2019-04-27T06:08:49.512Z,120.75
2019-04-27T06:11:19.532Z,120.57
2019-04-27T06:13:49.252Z,113.40
2019-04-27T06:16:19.504Z,108.13
2019-04-27T06:18:49.360Z,102.40
2019-04-27T06:21:19.427Z,109.70
2019-04-27T06:23:48.808Z,107.75
2019-04-27T06:26:17.288Z,103.40
2019-04-27T06:28:45.744Z,93.65
2019-04-27T06:31:15.219Z,86.13
2019-04-27T06:33:43.671Z,85.50
2019-04-27T06:36:14.593Z,88.95
2019-04-27T06:38:43.032Z,78.75
2019-04-27T06:41:11.433Z,74.12
2019-04-27T06:43:41.838Z,66.92
2019-04-27T06:46:10.273Z,70.55
2019-04-27T06:48:39.459Z,63.92
2019-04-27T06:51:09.684Z,58.55
2019-04-27T06:53:39.443Z,57.83
2019-04-27T06:56:08.947Z,63.87
2019-04-27T06:58:38.928Z,56.23
2019-04-27T07:01:10.754Z,52.65
2019-04-27T07:03:39.553Z,53.30
2019-04-27T07:06:08.855Z,49.88
2019-04-27T07:08:37.460Z,48.38
2019-04-27T07:11:05.982Z,45.10
2019-04-27T07:13:34.388Z,44.93
2019-04-27T07:16:03.098Z,46.70
2019-04-27T07:18:35.363Z,41.25
2019-04-27T07:23:33.314Z,37.90
2019-04-27T07:26:01.847Z,37.08
2019-04-27T07:28:34.049Z,41.73
2019-04-27T07:33:31.185Z,35.38
2019-04-27T07:35:59.639Z,38.67
2019-04-27T07:38:29.364Z,37.67
2019-04-27T07:40:58.693Z,36.23
2019-04-27T07:43:39.654Z,38.80
2019-04-27T07:46:08.880Z,36.85
2019-04-27T07:48:41.791Z,33.65
2019-04-27T07:51:10.210Z,29.50
2019-04-27T07:53:42.298Z,29.18
2019-04-27T07:58:39.653Z,32.23
2019-04-27T08:01:09.294Z,29.80
2019-04-27T08:03:39.045Z,29.77
2019-04-27T08:06:08.476Z,29.72
2019-04-27T08:08:39.651Z,38.75
2019-04-27T08:11:08.852Z,33.13
2019-04-27T08:13:39.349Z,31.48
2019-04-27T08:16:08.681Z,33.45
2019-04-27T08:18:37.305Z,28.55
2019-04-27T08:21:05.737Z,28.80
2019-04-27T08:23:34.141Z,32.38
2019-04-27T08:26:04.258Z,32.53
2019-04-27T08:28:34.333Z,30.55
2019-04-27T08:31:16.487Z,33.83
2019-04-27T08:33:44.914Z,30.65
2019-04-27T08:36:14.497Z,35.07
2019-04-27T08:38:42.930Z,33.67
2019-04-27T08:41:15.382Z,33.45
2019-04-27T08:43:43.787Z,31.77
2019-04-27T08:46:12.261Z,36.65
2019-04-27T08:48:40.722Z,32.48
2019-04-27T08:51:10.131Z,34.50
2019-04-27T08:53:39.754Z,37.58
2019-04-27T08:56:09.384Z,33.25
2019-04-27T08:58:38.611Z,30.25
2019-04-27T09:01:10.362Z,31.60
2019-04-27T09:03:39.503Z,33.28
2019-04-27T09:06:10.646Z,28.98
2019-04-27T09:08:41.433Z,34.50
2019-04-27T09:11:18.669Z,30.72
2019-04-27T09:13:53.221Z,30.95
2019-04-27T09:16:28.837Z,29.47
2019-04-27T09:18:59.735Z,21.68
2019-04-27T09:21:30.988Z,17.40
2019-04-27T09:23:59.631Z,16.57
2019-04-27T09:26:28.727Z,15.32
2019-04-27T09:28:57.405Z,16.52
2019-04-27T09:31:25.892Z,14.10
2019-04-27T09:33:55.009Z,13.85
2019-04-27T09:36:26.013Z,12.87
2019-04-27T09:38:56.455Z,14.18
2019-04-27T09:41:26.298Z,12.23
2019-04-27T09:44:10.492Z,13.78
2019-04-27T09:46:40.458Z,11.45
2019-04-27T09:49:20.260Z,11.60
2019-04-27T09:51:49.754Z,13.98
2019-04-27T09:54:18.344Z,14.87
2019-04-27T09:56:47.046Z,12.10
2019-04-27T09:59:16.715Z,13.98
2019-04-27T10:01:47.981Z,13.98
2019-04-27T10:04:17.684Z,7.47
2019-04-27T10:06:48.589Z,6.58
2019-04-27T10:09:16.445Z,7.87
2019-04-27T10:11:47.197Z,14.23
2019-04-27T10:14:16.352Z,7.15
2019-04-27T10:16:46.738Z,6.25
2019-04-27T10:19:27.958Z,6.65
2019-04-27T10:21:46.753Z,7.47
2019-04-27T10:24:16.311Z,8.15
2019-04-27T10:26:44.764Z,7.97
2019-04-27T10:29:13.257Z,8.83
2019-04-27T10:31:41.685Z,9.48
2019-04-27T10:34:11.215Z,10.08
2019-04-27T10:36:46.084Z,8.48
2019-04-27T10:39:17.191Z,8.23
2019-04-27T10:41:46.346Z,5.60
2019-04-27T10:44:16.357Z,8.10
2019-04-27T10:46:44.761Z,13.80
2019-04-27T10:49:13.173Z,6.35
2019-04-27T10:51:41.606Z,3.95
2019-04-27T10:54:10.025Z,5.22
2019-04-27T10:56:42.322Z,4.90
2019-04-27T11:01:39.378Z,7.12
2019-04-27T11:04:15.958Z,6.37
2019-04-27T11:06:46.683Z,3.92
2019-04-27T11:09:16.306Z,4.40
2019-04-27T11:11:46.380Z,3.77
2019-04-27T11:14:16.010Z,3.75
2019-04-27T11:16:45.976Z,7.67
2019-04-27T11:19:16.725Z,5.25
2019-04-27T11:21:55.049Z,5.65
2019-04-27T11:24:25.843Z,2.15
2019-04-27T11:26:56.804Z,5.35
2019-04-27T11:29:25.698Z,6.12
2019-04-27T11:32:05.807Z,6.53
2019-04-27T11:34:52.192Z,4.08
2019-04-27T11:37:23.387Z,1.85
2019-04-27T11:39:51.857Z,3.37
2019-04-27T11:42:20.266Z,2.85
2019-04-27T11:44:55.429Z,3.35
2019-04-27T11:47:23.222Z,4.20
2019-04-27T11:49:51.632Z,2.42
2019-04-27T11:52:20.055Z,2.58
2019-04-27T11:54:48.479Z,2.17
2019-04-27T11:57:18.143Z,2.12
2019-04-27T11:59:49.094Z,2.27
2019-04-27T12:02:19.078Z,2.15
2019-04-27T12:04:47.489Z,2.17
2019-04-27T12:07:16.084Z,3.85
2019-04-27T12:09:46.224Z,2.42
2019-04-27T12:12:21.733Z,2.35
2019-04-27T12:14:56.030Z,3.37
2019-04-27T12:17:29.231Z,4.60
2019-04-27T12:19:57.689Z,3.55
2019-04-27T12:22:28.788Z,1.63
2019-04-27T12:24:57.234Z,2.50
2019-04-27T12:27:45.794Z,3.60
2019-04-27T12:30:17.393Z,1.47
2019-04-27T12:32:45.888Z,2.67
2019-04-27T12:35:14.346Z,2.02
2019-04-27T12:37:43.135Z,5.10
2019-04-27T12:40:11.822Z,4.35
2019-04-27T12:42:42.926Z,2.72
2019-04-27T12:45:11.532Z,2.12
2019-04-27T12:47:40.058Z,2.67
2019-04-27T12:50:13.325Z,2.12
2019-04-27T12:52:43.409Z,1.67
2019-04-27T12:55:17.062Z,4.28
2019-04-27T12:57:50.196Z,3.87
2019-04-27T13:00:23.666Z,2.35
2019-04-27T13:02:53.758Z,7.05
2019-04-27T13:05:22.267Z,4.85
2019-04-27T13:07:50.712Z,4.42
2019-04-27T13:10:19.501Z,2.33
2019-04-27T13:12:47.969Z,2.45
2019-04-27T13:15:17.241Z,1.52
2019-04-27T13:17:46.676Z,5.25
2019-04-27T13:20:17.221Z,5.05
2019-04-27T13:22:45.963Z,4.62
2019-04-27T13:25:17.063Z,2.37
2019-04-27T13:27:45.504Z,3.90
2019-04-27T13:30:16.316Z,2.30
2019-04-27T13:32:46.938Z,2.12
2019-04-27T13:35:16.858Z,1.65
2019-04-27T13:37:46.761Z,3.33
2019-04-27T13:40:17.199Z,3.70
2019-04-27T13:42:47.682Z,6.65
2019-04-27T13:45:20.957Z,2.95
2019-04-27T13:47:57.432Z,1.70
2019-04-27T13:50:27.529Z,1.77
2019-04-27T13:53:01.722Z,7.85
2019-04-27T13:55:33.079Z,1.20
2019-04-27T13:58:03.389Z,2.10
2019-04-27T14:00:37.777Z,2.22
2019-04-27T14:03:06.312Z,3.15
2019-04-27T14:05:34.743Z,2.85
2019-04-27T14:08:03.393Z,2.65
2019-04-27T14:10:32.956Z,4.12
2019-04-27T14:13:04.173Z,2.02
2019-04-27T14:15:32.646Z,11.97
2019-04-27T14:18:02.694Z,16.23
2019-04-27T14:20:34.170Z,15.23
2019-04-27T14:23:10.419Z,12.67
2019-04-27T14:25:39.812Z,12.88
2019-04-27T14:28:08.583Z,12.83
2019-04-27T14:30:38.121Z,14.85
2019-04-27T14:33:10.260Z,10.38
2019-04-27T14:35:39.992Z,11.38
2019-04-27T14:38:09.126Z,12.78
2019-04-27T14:40:39.243Z,11.50
2019-04-27T14:43:10.644Z,14.18
2019-04-27T14:45:40.103Z,10.90
2019-04-27T14:48:12.816Z,12.03
2019-04-27T14:50:50.641Z,14.20
2019-04-27T14:53:22.153Z,12.68
2019-04-27T14:55:54.204Z,11.75
2019-04-27T15:00:54.456Z,9.63
2019-04-27T15:03:22.898Z,11.70
2019-04-27T15:05:55.289Z,9.13
2019-04-27T15:08:28.458Z,9.80
2019-04-27T15:10:59.324Z,9.05
2019-04-27T15:13:27.935Z,11.90
2019-04-27T15:15:56.377Z,8.50
2019-04-27T15:18:26.535Z,8.23
2019-04-27T15:20:58.447Z,8.45
2019-04-27T15:23:26.579Z,8.95
2019-04-27T15:26:00.011Z,9.45
2019-04-27T15:28:31.957Z,10.53
2019-04-27T15:31:06.500Z,7.87
2019-04-27T15:33:54.671Z,8.23
2019-04-27T15:36:28.661Z,6.72
2019-04-27T15:38:59.747Z,7.10
2019-04-27T15:41:40.390Z,7.63
2019-04-27T15:44:09.549Z,7.20
2019-04-27T15:46:40.029Z,6.08
2019-04-27T15:49:11.241Z,7.20
2019-04-27T15:51:41.139Z,9.33
2019-04-27T15:54:09.674Z,8.85
2019-04-27T15:56:38.241Z,6.05
2019-04-27T15:59:08.136Z,7.72
2019-04-27T16:01:39.502Z,6.25
2019-04-27T16:04:18.423Z,8.00
2019-04-27T16:06:48.628Z,7.28
2019-04-27T16:09:24.222Z,6.42
2019-04-27T16:11:57.684Z,6.40
2019-04-27T16:14:19.334Z,8.63
2019-04-27T16:16:48.782Z,7.30
2019-04-27T16:19:18.409Z,6.40
2019-04-27T16:21:50.164Z,8.73
2019-04-27T16:24:21.258Z,7.50
2019-04-27T16:26:56.026Z,8.33
2019-04-27T16:29:38.902Z,8.38
2019-04-27T16:32:11.510Z,8.47
2019-04-27T16:37:13.904Z,7.83
2019-04-27T16:39:49.430Z,9.80
2019-04-27T16:42:18.614Z,9.93
2019-04-27T16:44:53.113Z,11.90
2019-04-27T16:47:24.488Z,10.20
2019-04-27T16:49:51.137Z,10.20
2019-04-27T16:52:23.391Z,8.50
2019-04-27T16:54:57.159Z,8.33
2019-04-27T16:57:23.597Z,7.45
2019-04-27T16:59:57.714Z,8.83
2019-04-27T17:02:25.150Z,8.83
2019-04-27T17:04:55.533Z,11.33
2019-04-27T17:07:22.504Z,9.55
2019-04-27T17:09:50.939Z,8.20
2019-04-27T17:12:23.712Z,10.90
2019-04-27T17:14:53.853Z,11.40
2019-04-27T17:17:23.893Z,10.48
2019-04-27T17:19:54.281Z,8.93
2019-04-27T17:22:22.763Z,9.78
2019-04-27T17:24:51.236Z,9.90
2019-04-27T17:27:28.634Z,10.68
2019-04-27T17:29:57.973Z,11.20
2019-04-27T17:32:33.479Z,10.00
2019-04-27T17:35:04.992Z,11.60
2019-04-27T17:37:33.769Z,12.13
2019-04-27T17:40:02.182Z,10.82
2019-04-27T17:42:31.047Z,11.57
2019-04-27T17:45:00.564Z,11.48
2019-04-27T17:47:30.043Z,9.88
2019-04-27T17:49:58.667Z,13.93
2019-04-27T17:52:27.076Z,11.95
2019-04-27T17:54:55.485Z,12.18
2019-04-27T17:57:26.466Z,12.15
2019-04-27T17:59:58.843Z,11.88
2019-04-27T18:02:24.245Z,13.10
2019-04-27T18:04:52.667Z,12.68
2019-04-27T18:07:21.086Z,12.80
2019-04-27T18:09:49.509Z,13.55
2019-04-27T18:12:20.038Z,12.85
2019-04-27T18:14:48.435Z,11.70
2019-04-27T18:17:19.682Z,10.58
2019-04-27T18:19:51.417Z,11.45
2019-04-27T18:22:20.168Z,13.93
2019-04-27T18:24:50.375Z,10.85
2019-04-27T18:27:26.325Z,12.30
2019-04-27T18:29:59.254Z,13.08
2019-04-27T18:32:27.728Z,12.13
2019-04-27T18:34:58.456Z,12.50
2019-04-27T18:37:28.278Z,11.53
2019-04-27T18:39:58.156Z,14.07
2019-04-27T18:42:28.059Z,12.15
2019-04-27T18:45:06.053Z,10.25
2019-04-27T18:47:31.210Z,10.18
2019-04-27T18:50:19.625Z,9.58
2019-04-27T18:52:50.290Z,10.30
2019-04-27T18:55:20.845Z,8.68
2019-04-27T18:57:51.040Z,11.53
2019-04-27T19:00:21.624Z,6.37
2019-04-27T19:02:50.502Z,9.53
2019-04-27T19:05:19.159Z,7.90
2019-04-27T19:07:48.447Z,10.00
2019-04-27T19:10:19.039Z,11.85
2019-04-27T19:12:48.390Z,12.95
2019-04-27T19:15:18.348Z,12.18
2019-04-27T19:17:48.741Z,12.85
2019-04-27T19:20:18.633Z,15.30
2019-04-27T19:22:49.010Z,15.70
2019-04-27T19:25:19.256Z,15.58
2019-04-27T19:28:06.120Z,17.87
2019-04-27T19:30:36.173Z,18.40
2019-04-27T19:33:07.649Z,18.17
2019-04-27T19:35:37.950Z,20.05
2019-04-27T19:38:08.176Z,22.27
2019-04-27T19:40:37.985Z,19.98
2019-04-27T19:43:06.475Z,18.23
2019-04-27T19:45:35.514Z,21.68
2019-04-27T19:48:03.961Z,19.20
2019-04-27T19:50:32.419Z,18.00
2019-04-27T19:53:00.808Z,21.40
2019-04-27T19:55:29.256Z,22.82
2019-04-27T19:57:59.439Z,21.65
2019-04-27T20:00:48.434Z,20.37
2019-04-27T20:03:19.299Z,20.32
2019-04-27T20:05:47.870Z,18.42
2019-04-27T20:08:23.590Z,21.05
2019-04-27T20:10:52.006Z,20.12
2019-04-27T20:13:21.982Z,19.43
2019-04-27T20:15:51.248Z,20.82
2019-04-27T20:18:22.195Z,20.12
2019-04-27T20:20:50.639Z,21.48
2019-04-27T20:23:22.273Z,24.00
2019-04-27T20:25:49.196Z,21.73
2019-04-27T20:28:17.621Z,20.60
2019-04-27T20:30:46.071Z,19.30
2019-04-27T20:33:14.521Z,19.63
2019-04-27T20:35:42.970Z,17.57
2019-04-27T20:38:13.004Z,17.35
2019-04-27T20:40:42.406Z,21.45
2019-04-27T20:43:10.867Z,17.02
2019-04-27T20:45:41.245Z,20.00
2019-04-27T20:48:11.189Z,18.25
2019-04-27T20:50:41.207Z,17.45
2019-04-27T20:53:12.649Z,21.52
2019-04-27T20:55:41.163Z,19.77
2019-04-27T20:58:10.915Z,18.60
2019-04-27T21:00:41.759Z,21.52
2019-04-27T21:03:12.496Z,18.57
2019-04-27T21:05:45.083Z,21.45
2019-04-27T21:08:15.196Z,18.40
2019-04-27T21:10:43.594Z,21.62
2019-04-27T21:13:15.044Z,16.42
2019-04-27T21:15:48.026Z,13.68
2019-04-27T21:18:16.819Z,17.98
2019-04-27T21:20:45.215Z,16.25
2019-04-27T21:23:13.627Z,16.30
2019-04-27T21:25:42.315Z,14.38
2019-04-27T21:28:16.397Z,17.17
2019-04-27T21:30:40.932Z,19.02
2019-04-27T21:33:11.323Z,15.38
2019-04-27T21:35:39.670Z,16.75
2019-04-27T21:38:08.090Z,13.62
2019-04-27T21:40:36.990Z,20.82
2019-04-27T21:43:06.551Z,13.55
2019-04-27T21:45:36.100Z,13.90
2019-04-27T21:48:04.580Z,11.80
2019-04-27T21:50:33.012Z,12.25
2019-04-27T21:53:15.360Z,11.38
2019-04-27T21:55:44.700Z,9.75
2019-04-27T21:58:14.135Z,9.93
2019-04-27T22:00:44.204Z,9.50
2019-04-27T22:03:16.967Z,10.78
2019-04-27T22:05:45.390Z,8.90
2019-04-27T22:08:13.810Z,8.23
2019-04-27T22:10:42.292Z,8.43
2019-04-27T22:13:10.737Z,8.35
2019-04-27T22:15:39.219Z,10.15
2019-04-27T22:18:07.811Z,9.75
2019-04-27T22:20:36.675Z,8.03
2019-04-27T22:23:13.083Z,8.83
2019-04-27T22:25:42.159Z,10.03
2019-04-27T22:28:11.756Z,8.45
2019-04-27T22:30:40.453Z,7.75
2019-04-27T22:33:08.880Z,10.32
2019-04-27T22:35:37.305Z,15.65
2019-04-27T22:38:05.730Z,9.28
2019-04-27T22:40:47.207Z,11.33
2019-04-27T22:43:35.042Z,11.48
2019-04-27T22:46:15.117Z,10.58
2019-04-27T22:48:43.545Z,12.68
2019-04-27T22:51:11.944Z,8.53
2019-04-27T22:53:41.065Z,10.58
2019-04-27T22:56:13.578Z,10.55
2019-04-27T22:58:43.077Z,14.55
2019-04-27T23:01:15.989Z,12.05
2019-04-27T23:03:46.044Z,12.25
2019-04-27T23:06:14.467Z,12.13
2019-04-27T23:08:42.904Z,13.65
2019-04-27T23:11:13.950Z,13.80
2019-04-27T23:13:42.366Z,14.40
2019-04-27T23:16:12.451Z,13.48
2019-04-27T23:18:41.361Z,14.83
2019-04-27T23:21:13.066Z,15.00
2019-04-27T23:23:41.318Z,12.10
2019-04-27T23:26:11.831Z,14.33
2019-04-27T23:28:42.554Z,20.57
2019-04-27T23:31:15.314Z,12.70
2019-04-27T23:33:46.499Z,14.15
2019-04-27T23:36:14.927Z,17.00
2019-04-27T23:38:43.333Z,18.45
2019-04-27T23:41:11.794Z,16.45
2019-04-27T23:43:41.198Z,21.87
2019-04-27T23:46:11.505Z,20.12
2019-04-27T23:48:41.845Z,21.95
2019-04-27T23:51:28.853Z,21.12
2019-04-27T23:53:57.343Z,23.50
2019-04-27T23:56:28.747Z,17.63
2019-04-27T23:58:57.191Z,16.80
